Munising, Michigan
Current Conditions -  °F | °C
As of 11:16 PM on Friday 24 Oct 2014 (Local Time) from KSAW Reporting Station
Broken Clouds Broken Clouds  
Wind Chill:   Ceiling: 1700
Heat Index:   Visibility: 10mi
Dew Point:   Wind: 14mph
Humidity: 90%   Direction: 200°SSW
Pressure: 29.76"   Gusts: NA
Location:  46.41°N, 86.65°W
Report Text: KSAW 250316Z AUTO 20012KT 10SM BKN017 10/08 A2976 RMK AO2 T00950080
Loading
Personal Weather Stations






























Interactive Weather Map
Tropical Storm Tracking
New forecast layout! Learn more

10-Day Weather Forecast

Advertisements
Track Severe Weather on mobile